Time;durP1;ratioP1;P1;durP2;ratioP2;P2;SDS_P1;SDS_P2;PMS_P1;PMS_P2;Temp;Humidity;BMP_temperature;BMP_pressure;BME280_temperature;BME280_humidity;BME280_pressure;Samples;Min_cycle;Max_cycle;Signal;HPM_P1;HPM_P2
2022/07/22 00:12:01;;;;;;;5.90;2.35;;;30.10;99.90;;;;;;4998310;28;20312;-96
2022/07/22 00:14:33;;;;;;;4.47;2.60;;;29.70;99.90;;;;;;5003214;28;20206;-95
2022/07/22 00:31:02;;;;;;;3.40;2.10;;;29.50;99.90;;;;;;4992259;28;20242;-96
2022/07/22 00:33:34;;;;;;;4.70;2.10;;;29.40;99.90;;;;;;4989714;28;20214;-96
2022/07/22 00:47:08;;;;;;;4.20;2.10;;;29.90;99.90;;;;;;5133113;23;20237;-96
2022/07/22 00:49:41;;;;;;;2.78;1.83;;;30.20;99.90;;;;;;5035706;28;20232;-96
2022/07/22 00:52:15;;;;;;;3.58;2.00;;;30.00;99.90;;;;;;5732635;23;20268;-95
2022/07/22 00:54:51;;;;;;;3.47;1.70;;;30.10;99.90;;;;;;5033207;28;20201;-95
2022/07/22 00:57:23;;;;;;;4.13;1.70;;;29.70;99.90;;;;;;5343179;23;20328;-96
2022/07/22 00:59:57;;;;;;;4.03;1.60;;;29.60;99.90;;;;;;5024045;28;20622;-96
2022/07/22 01:05:23;;;;;;;2.90;1.60;;;30.00;99.90;;;;;;5006255;28;20266;-95
2022/07/22 01:07:56;;;;;;;3.67;1.77;;;30.70;99.90;;;;;;5379953;23;20251;-95
2022/07/22 01:10:44;;;;;;;2.85;1.58;;;30.80;99.90;;;;;;5030401;28;20220;-96
2022/07/22 01:13:20;;;;;;;2.22;1.70;;;31.40;99.90;;;;;;5028865;28;20692;-96
2022/07/22 01:15:51;;;;;;;2.63;2.10;;;31.60;99.90;;;;;;5024273;28;20209;-96
2022/07/22 01:18:25;;;;;;;2.63;1.77;;;32.00;99.90;;;;;;5036609;28;20262;-95
2022/07/22 01:26:36;;;;;;;3.17;1.70;;;31.70;99.90;;;;;;5034175;28;20240;-95
2022/07/22 01:32:11;;;;;;;2.17;1.88;;;32.30;99.90;;;;;;5336924;23;20310;-96
2022/07/22 01:34:44;;;;;;;2.45;1.88;;;32.80;99.90;;;;;;5031224;28;20275;-96
2022/07/22 01:37:15;;;;;;;3.80;1.90;;;32.90;98.80;;;;;;5023197;28;20295;-95
2022/07/22 01:39:46;;;;;;;3.95;1.90;;;33.00;98.90;;;;;;5021357;28;20219;-96
2022/07/22 01:42:18;;;;;;;3.08;2.03;;;33.20;98.80;;;;;;5020264;28;20213;-96
2022/07/22 01:44:51;;;;;;;3.78;2.10;;;33.10;99.00;;;;;;5022533;28;20210;-96
2022/07/22 01:47:22;;;;;;;3.65;2.15;;;33.10;98.90;;;;;;5022410;28;20217;-96
2022/07/22 01:49:55;;;;;;;4.18;2.40;;;32.20;99.00;;;;;;5023151;28;20580;-96
2022/07/22 01:52:28;;;;;;;2.90;2.50;;;31.40;99.80;;;;;;5021382;28;20213;-96
2022/07/22 01:55:03;;;;;;;3.50;2.30;;;31.90;99.80;;;;;;5027225;28;20214;-96
2022/07/22 02:03:06;;;;;;;3.80;2.60;;;31.40;99.90;;;;;;4964324;28;20306;-96
2022/07/22 02:05:41;;;;;;;3.70;2.42;;;32.00;99.90;;;;;;4974703;28;20215;-95
2022/07/22 02:11:45;;;;;;;5.72;2.45;;;31.50;99.90;;;;;;5047666;23;20307;-96
2022/07/22 02:14:17;;;;;;;4.10;2.28;;;30.90;99.90;;;;;;5021415;28;20209;-96
2022/07/22 02:16:51;;;;;;;3.38;2.65;;;29.90;99.90;;;;;;5034614;28;20198;-96
2022/07/22 02:19:40;;;;;;;6.30;2.97;;;29.50;99.90;;;;;;5021477;28;20209;-96
2022/07/22 03:01:20;;;;;;;7.93;3.93;;;25.20;99.90;;;;;;5030659;28;20209;-96
2022/07/22 03:04:06;;;;;;;5.13;3.00;;;24.90;99.90;;;;;;5032166;28;20241;-96
2022/07/22 03:41:53;;;;;;;3.77;2.63;;;23.70;99.90;;;;;;5214869;23;20245;-96
2022/07/22 03:44:38;;;;;;;4.43;2.80;;;23.60;99.90;;;;;;5031138;28;20240;-96
2022/07/22 04:08:54;;;;;;;4.70;2.47;;;22.80;99.90;;;;;;5009291;28;20245;-95
2022/07/22 04:11:28;;;;;;;4.63;2.70;;;22.70;99.90;;;;;;5011498;28;20218;-94
2022/07/22 04:14:00;;;;;;;2.97;2.13;;;22.70;99.90;;;;;;5010067;28;20212;-95
2022/07/22 04:16:32;;;;;;;5.03;2.33;;;22.50;99.90;;;;;;5009631;28;20218;-95
2022/07/22 04:19:04;;;;;;;3.87;2.40;;;22.40;99.90;;;;;;5015352;28;20197;-95
2022/07/22 04:24:52;;;;;;;4.80;2.53;;;22.10;99.90;;;;;;5410489;23;20248;-96
2022/07/22 04:33:21;;;;;;;4.67;2.13;;;21.80;99.90;;;;;;5030823;28;20225;-96
2022/07/22 04:41:48;;;;;;;4.47;2.33;;;21.60;99.90;;;;;;5030390;28;20206;-95
2022/07/22 04:53:04;;;;;;;4.63;2.40;;;21.20;99.90;;;;;;5029497;28;20268;-94
2022/07/22 04:55:35;;;;;;;2.80;2.30;;;21.20;99.90;;;;;;5021792;28;20213;-95
2022/07/22 04:58:07;;;;;;;3.87;2.27;;;21.00;99.90;;;;;;5023186;28;20236;-95
2022/07/22 05:00:51;;;;;;;3.20;2.30;;;20.90;99.90;;;;;;5025946;28;20232;-95
2022/07/22 05:03:26;;;;;;;7.63;2.57;;;20.80;99.90;;;;;;5022833;28;20670;-95
2022/07/22 05:05:59;;;;;;;3.10;1.93;;;20.80;99.90;;;;;;5022900;28;20209;-95
2022/07/22 05:08:30;;;;;;;7.00;1.97;;;20.80;99.90;;;;;;5024397;28;20271;-95
2022/07/22 05:11:02;;;;;;;4.07;2.30;;;20.60;99.90;;;;;;5022752;28;20206;-95
2022/07/22 05:13:34;;;;;;;4.57;2.10;;;20.50;99.90;;;;;;5022057;28;20213;-96
2022/07/22 05:16:06;;;;;;;6.77;2.13;;;20.40;99.90;;;;;;5022791;28;20213;-95
2022/07/22 05:18:40;;;;;;;3.37;1.83;;;20.30;99.90;;;;;;5024696;28;20213;-95
2022/07/22 05:21:11;;;;;;;6.97;2.37;;;20.20;99.90;;;;;;5137110;23;20244;-95
2022/07/22 05:23:42;;;;;;;5.03;2.47;;;20.20;99.90;;;;;;5036401;28;20216;-96
2022/07/22 05:26:14;;;;;;;4.23;2.20;;;20.10;99.90;;;;;;5395916;23;20288;-95
2022/07/22 05:28:45;;;;;;;3.57;2.13;;;20.00;99.90;;;;;;5039506;28;20232;-96
2022/07/22 05:31:17;;;;;;;2.67;2.03;;;20.00;99.90;;;;;;5038617;28;20214;-94
2022/07/22 05:33:50;;;;;;;2.53;2.10;;;19.90;99.90;;;;;;5040160;28;20193;-95
2022/07/22 05:36:23;;;;;;;6.33;2.30;;;19.80;99.90;;;;;;5040044;28;20189;-96
2022/07/22 05:38:54;;;;;;;3.40;2.33;;;19.70;99.90;;;;;;5082431;23;20225;-95
2022/07/22 05:41:26;;;;;;;3.10;2.03;;;19.70;99.90;;;;;;5039546;28;20203;-96
2022/07/22 05:44:07;;;;;;;3.37;2.27;;;19.60;99.90;;;;;;5039924;28;20198;-94
2022/07/22 05:46:39;;;;;;;4.93;2.60;;;19.50;99.90;;;;;;5040086;28;20213;-93
2022/07/22 05:49:14;;;;;;;3.30;2.27;;;19.50;99.90;;;;;;5039692;28;20241;-95
2022/07/22 05:51:46;;;;;;;2.70;2.30;;;19.40;99.90;;;;;;5036624;28;20214;-96
2022/07/22 05:54:18;;;;;;;6.30;2.70;;;19.30;99.90;;;;;;5035413;28;20217;-96
2022/07/22 05:56:49;;;;;;;3.13;2.20;;;19.20;99.90;;;;;;5027864;28;20654;-96
2022/07/22 05:59:20;;;;;;;3.67;2.33;;;19.10;99.90;;;;;;5023664;28;20661;-96
2022/07/22 06:01:52;;;;;;;5.70;2.30;;;19.10;99.90;;;;;;5022696;28;20214;-96
2022/07/22 06:04:27;;;;;;;2.70;2.10;;;19.20;99.90;;;;;;5024268;28;20226;-95
2022/07/22 06:06:58;;;;;;;6.00;2.57;;;19.10;99.90;;;;;;5021602;28;20237;-96
2022/07/22 06:09:29;;;;;;;5.50;2.77;;;19.00;99.90;;;;;;5023008;28;20764;-96
2022/07/22 06:12:01;;;;;;;2.97;2.17;;;18.90;99.90;;;;;;5025793;28;20209;-95
2022/07/22 06:14:32;;;;;;;4.70;2.30;;;18.80;99.90;;;;;;5021596;28;20240;-95
2022/07/22 06:17:04;;;;;;;4.13;2.47;;;18.80;99.90;;;;;;5025204;28;20206;-95
2022/07/22 06:19:38;;;;;;;3.60;2.50;;;18.70;99.90;;;;;;5023758;28;20296;-96
2022/07/22 06:22:10;;;;;;;2.93;2.10;;;18.70;99.90;;;;;;5022898;28;20205;-95
2022/07/22 06:24:48;;;;;;;4.70;2.70;;;18.70;99.90;;;;;;5021432;28;20300;-94
2022/07/22 06:27:21;;;;;;;3.97;2.50;;;18.70;99.90;;;;;;5026612;28;20216;-95
2022/07/22 06:29:53;;;;;;;4.97;2.83;;;18.60;99.90;;;;;;5023567;28;20256;-95
2022/07/22 06:32:25;;;;;;;3.20;2.60;;;18.50;99.90;;;;;;5018204;28;20264;-94
2022/07/22 06:34:58;;;;;;;3.63;2.57;;;18.50;99.90;;;;;;5019453;28;20218;-95
2022/07/22 06:37:30;;;;;;;6.53;2.50;;;18.50;99.90;;;;;;5018806;28;20213;-96
2022/07/22 06:40:23;;;;;;;4.63;2.70;;;18.40;99.90;;;;;;5019112;28;20221;-95
2022/07/22 06:43:04;;;;;;;5.90;2.47;;;18.30;99.90;;;;;;5011512;28;20260;-94
2022/07/22 06:45:37;;;;;;;5.63;2.33;;;18.20;99.90;;;;;;5026933;28;20573;-95
2022/07/22 06:48:22;;;;;;;3.43;2.50;;;18.30;99.90;;;;;;5026118;28;20208;-95
2022/07/22 06:50:57;;;;;;;4.23;2.60;;;18.30;99.90;;;;;;5024831;28;20233;-95
2022/07/22 06:53:30;;;;;;;3.33;2.20;;;18.30;99.90;;;;;;5026262;28;20205;-96
2022/07/22 06:56:01;;;;;;;5.23;2.27;;;18.30;99.90;;;;;;5026434;28;20214;-96
2022/07/22 06:58:38;;;;;;;6.27;2.70;;;18.30;99.90;;;;;;5028004;28;20229;-92
2022/07/22 07:01:10;;;;;;;8.03;2.60;;;18.30;99.90;;;;;;5029849;28;20561;-95
2022/07/22 07:03:44;;;;;;;3.30;2.17;;;18.30;99.90;;;;;;5032058;28;20217;-95
2022/07/22 07:06:58;;;;;;;3.63;2.50;;;18.30;99.90;;;;;;5025958;28;20205;-95
2022/07/22 07:09:45;;;;;;;5.80;2.50;;;18.20;99.90;;;;;;5027626;28;20268;-94
2022/07/22 07:12:19;;;;;;;3.50;2.43;;;18.20;99.90;;;;;;5025233;28;20213;-94
2022/07/22 07:14:51;;;;;;;5.67;2.63;;;18.10;99.90;;;;;;5022536;28;20582;-95
2022/07/22 07:17:35;;;;;;;2.77;2.20;;;18.20;99.90;;;;;;5022181;28;20595;-96
2022/07/22 07:20:10;;;;;;;3.43;2.00;;;18.10;99.90;;;;;;5019283;28;20205;-96
2022/07/22 07:22:44;;;;;;;4.83;2.53;;;18.10;99.90;;;;;;5019384;28;20300;-94
2022/07/22 07:25:18;;;;;;;2.87;2.17;;;18.10;99.90;;;;;;5022357;28;20213;-94
2022/07/22 07:27:54;;;;;;;3.90;2.30;;;18.00;99.90;;;;;;5019682;28;20236;-95
2022/07/22 07:30:26;;;;;;;4.33;2.13;;;18.00;99.90;;;;;;5021627;28;20245;-96
2022/07/22 07:33:00;;;;;;;4.50;2.60;;;17.90;99.90;;;;;;5019611;28;20232;-95
2022/07/22 07:35:31;;;;;;;6.47;2.17;;;17.90;99.90;;;;;;5018923;28;20546;-96
2022/07/22 07:38:02;;;;;;;3.50;2.13;;;17.80;99.90;;;;;;5019606;28;20229;-94
2022/07/22 07:40:36;;;;;;;3.57;2.53;;;17.70;99.90;;;;;;5022989;28;20209;-95
2022/07/22 07:43:07;;;;;;;6.03;2.50;;;17.60;99.90;;;;;;5021913;28;20224;-95
2022/07/22 07:45:39;;;;;;;5.83;2.23;;;17.60;99.90;;;;;;5027137;28;20217;-95
2022/07/22 07:48:12;;;;;;;3.57;2.27;;;17.40;99.90;;;;;;5021329;28;20213;-95
2022/07/22 07:50:45;;;;;;;3.77;2.47;;;17.30;99.90;;;;;;5020007;28;20697;-94
2022/07/22 07:53:18;;;;;;;4.20;2.30;;;17.20;99.90;;;;;;5024171;28;20213;-94
2022/07/22 07:55:52;;;;;;;4.50;2.63;;;17.20;99.90;;;;;;5021298;28;20236;-95
2022/07/22 07:58:24;;;;;;;5.10;2.37;;;17.20;99.90;;;;;;5021327;28;20189;-92
2022/07/22 08:01:09;;;;;;;3.40;2.30;;;17.20;99.90;;;;;;5019724;28;20296;-96
2022/07/22 08:03:41;;;;;;;4.20;2.83;;;17.10;99.90;;;;;;5017777;28;20213;-94
2022/07/22 08:06:16;;;;;;;3.67;2.47;;;17.00;99.90;;;;;;5022681;28;20272;-94
2022/07/22 08:08:47;;;;;;;3.97;2.27;;;16.70;99.90;;;;;;5017271;28;20560;-94
2022/07/22 08:11:20;;;;;;;4.47;2.43;;;16.70;99.90;;;;;;5016780;28;20230;-94
2022/07/22 08:13:52;;;;;;;5.03;2.83;;;16.70;99.90;;;;;;5017809;28;20233;-95
2022/07/22 08:16:23;;;;;;;3.93;2.50;;;16.70;99.90;;;;;;5017590;28;20229;-94
2022/07/22 08:18:56;;;;;;;2.70;2.40;;;16.60;99.90;;;;;;5017660;28;20216;-93
2022/07/22 08:21:29;;;;;;;3.20;2.50;;;16.50;99.90;;;;;;5017890;28;20685;-94
2022/07/22 08:24:01;;;;;;;3.20;2.40;;;16.40;99.90;;;;;;5021128;28;20214;-93
2022/07/22 08:26:34;;;;;;;4.43;2.60;;;16.20;99.90;;;;;;5023217;28;20209;-93
2022/07/22 08:29:07;;;;;;;3.43;2.70;;;16.20;99.90;;;;;;5017602;28;20268;-95
2022/07/22 08:31:42;;;;;;;3.43;2.90;;;16.10;99.90;;;;;;5016168;28;20646;-94
2022/07/22 08:34:13;;;;;;;3.70;2.40;;;16.10;99.90;;;;;;5017560;28;20695;-94
2022/07/22 08:36:44;;;;;;;3.43;2.50;;;16.00;99.90;;;;;;5020201;28;20237;-95
2022/07/22 08:39:16;;;;;;;2.90;2.40;;;15.90;99.90;;;;;;5017424;28;20256;-95
2022/07/22 08:41:54;;;;;;;3.10;2.73;;;15.80;99.90;;;;;;5015941;28;20201;-95
2022/07/22 08:44:26;;;;;;;3.13;2.47;;;15.80;99.90;;;;;;5020982;28;20220;-95
2022/07/22 08:46:57;;;;;;;2.90;2.37;;;15.80;99.90;;;;;;5017595;28;20325;-94
2022/07/22 08:49:36;;;;;;;3.23;2.70;;;15.70;99.90;;;;;;5019680;28;20221;-94
2022/07/22 08:52:07;;;;;;;3.43;2.20;;;15.80;99.90;;;;;;5018507;28;20252;-94
2022/07/22 08:54:38;;;;;;;2.40;2.20;;;15.70;99.90;;;;;;5022503;28;20221;-94
2022/07/22 08:57:12;;;;;;;3.93;2.17;;;15.70;99.90;;;;;;5024744;28;20220;-94
2022/07/22 08:59:54;;;;;;;4.33;2.40;;;15.40;99.90;;;;;;5022523;28;20208;-94
2022/07/22 09:02:27;;;;;;;3.00;2.20;;;15.40;99.90;;;;;;5019478;28;20719;-94
2022/07/22 09:05:00;;;;;;;3.77;1.90;;;15.50;99.90;;;;;;5018406;28;20313;-95
2022/07/22 09:07:52;;;;;;;3.73;2.20;;;15.50;99.90;;;;;;5018087;28;20234;-95
2022/07/22 09:10:24;;;;;;;3.03;2.03;;;15.40;99.90;;;;;;5024887;28;20210;-95
2022/07/22 09:12:59;;;;;;;3.87;2.33;;;15.40;99.90;;;;;;5031874;28;20214;-93
2022/07/22 09:15:32;;;;;;;5.70;2.17;;;15.30;99.90;;;;;;5028798;28;20209;-93
2022/07/22 09:18:04;;;;;;;4.90;2.10;;;15.20;99.90;;;;;;5019471;28;20221;-94
2022/07/22 09:20:38;;;;;;;3.87;1.90;;;15.20;99.90;;;;;;5021998;28;20213;-94
2022/07/22 09:23:14;;;;;;;3.93;1.90;;;15.20;99.90;;;;;;5018106;28;20573;-93
2022/07/22 09:25:46;;;;;;;2.37;1.93;;;15.10;99.90;;;;;;5018462;28;20209;-93
2022/07/22 09:28:24;;;;;;;3.30;2.00;;;15.10;99.90;;;;;;5021714;28;20216;-95
2022/07/22 09:30:57;;;;;;;1.63;1.53;;;15.00;99.90;;;;;;5019200;28;20639;-94
2022/07/22 09:33:31;;;;;;;2.17;1.90;;;15.00;99.90;;;;;;5020841;28;20209;-94
2022/07/22 09:36:05;;;;;;;2.13;1.93;;;15.00;99.90;;;;;;5022438;28;20256;-94
2022/07/22 09:38:36;;;;;;;4.93;1.83;;;14.90;99.90;;;;;;5028580;28;20271;-94
2022/07/22 09:41:07;;;;;;;2.07;1.50;;;15.00;99.90;;;;;;5039509;28;20200;-95
2022/07/22 09:43:41;;;;;;;2.30;1.50;;;15.00;99.90;;;;;;5039843;28;20250;-94
2022/07/22 09:46:12;;;;;;;2.90;1.80;;;15.00;99.90;;;;;;5039559;28;20197;-94
2022/07/22 09:48:44;;;;;;;2.47;1.73;;;14.90;99.90;;;;;;5037377;28;20194;-95
2022/07/22 09:51:16;;;;;;;2.17;1.70;;;14.90;99.90;;;;;;5038336;28;20209;-95
2022/07/22 09:53:48;;;;;;;2.43;1.73;;;14.90;99.90;;;;;;5039721;28;20229;-95
2022/07/22 09:56:20;;;;;;;1.73;1.50;;;14.80;99.90;;;;;;5038725;28;20186;-95
2022/07/22 09:58:54;;;;;;;1.90;1.57;;;14.80;99.90;;;;;;5039660;28;20197;-95
2022/07/22 10:01:32;;;;;;;2.73;1.33;;;14.70;99.90;;;;;;5038059;28;20217;-93
2022/07/22 10:04:07;;;;;;;1.40;1.27;;;14.70;99.90;;;;;;5032929;28;20214;-93
2022/07/22 10:06:41;;;;;;;2.93;1.50;;;14.70;99.90;;;;;;5028782;28;20220;-95
2022/07/22 10:09:16;;;;;;;2.40;1.40;;;14.80;99.90;;;;;;5028376;28;20277;-96
2022/07/22 10:11:49;;;;;;;3.67;1.50;;;14.80;99.90;;;;;;5030076;28;20233;-95
2022/07/22 10:14:25;;;;;;;1.43;1.20;;;14.80;99.90;;;;;;5029964;28;20209;-93
2022/07/22 10:16:59;;;;;;;1.47;1.30;;;14.80;99.90;;;;;;5026907;28;20241;-93
2022/07/22 10:19:39;;;;;;;1.50;1.40;;;14.90;99.90;;;;;;5026652;28;20324;-94
2022/07/22 10:23:05;;;;;;;1.40;1.30;;;14.80;99.90;;;;;;5023778;28;20587;-95
2022/07/22 10:25:58;;;;;;;1.30;1.20;;;14.90;99.90;;;;;;5023724;28;20231;-93
2022/07/22 10:28:31;;;;;;;1.90;1.23;;;15.00;99.90;;;;;;5022368;28;20577;-94
2022/07/22 10:31:30;;;;;;;2.30;1.20;;;15.00;99.90;;;;;;5021820;28;20236;-95
2022/07/22 10:34:03;;;;;;;1.27;1.17;;;15.00;99.90;;;;;;4988981;28;20205;-95
2022/07/22 10:36:37;;;;;;;1.20;1.10;;;14.90;99.90;;;;;;5022139;28;20291;-94
2022/07/22 10:39:10;;;;;;;1.17;1.07;;;14.90;99.90;;;;;;5021810;28;20213;-94
2022/07/22 10:41:46;;;;;;;1.40;1.30;;;14.80;99.90;;;;;;5021785;28;20227;-94
2022/07/22 10:44:49;;;;;;;1.67;1.40;;;14.90;99.90;;;;;;5022080;28;20228;-95
2022/07/22 10:47:57;;;;;;;2.00;1.20;;;14.90;99.90;;;;;;5020974;28;20304;-93
2022/07/22 10:50:47;;;;;;;2.20;1.43;;;15.00;99.90;;;;;;5019040;28;20214;-95
2022/07/22 10:53:22;;;;;;;1.40;1.30;;;15.00;99.90;;;;;;5021189;28;20237;-94
2022/07/22 10:56:15;;;;;;;1.73;1.40;;;14.90;99.90;;;;;;5020764;28;20200;-93
2022/07/22 10:59:01;;;;;;;1.80;1.60;;;14.90;99.90;;;;;;5020584;28;20237;-93
2022/07/22 11:01:33;;;;;;;1.73;1.63;;;14.90;99.90;;;;;;5020077;28;20240;-94
2022/07/22 11:04:18;;;;;;;2.07;1.90;;;14.90;99.90;;;;;;5021181;28;20293;-94
2022/07/22 11:06:50;;;;;;;2.00;1.80;;;14.90;99.90;;;;;;5026923;28;20259;-95
2022/07/22 11:09:25;;;;;;;1.73;1.63;;;14.90;99.90;;;;;;5006142;28;20210;-94
2022/07/22 11:11:59;;;;;;;2.50;1.70;;;15.00;99.90;;;;;;5024144;28;20291;-93
2022/07/22 11:14:32;;;;;;;2.57;1.97;;;14.90;99.90;;;;;;5022715;28;20654;-94
2022/07/22 11:17:08;;;;;;;2.27;2.03;;;14.90;99.90;;;;;;5030022;28;20240;-95
2022/07/22 11:19:44;;;;;;;2.30;2.10;;;14.80;99.90;;;;;;5036843;28;20212;-95
2022/07/22 11:22:17;;;;;;;2.97;2.23;;;14.80;99.90;;;;;;5037201;28;20181;-94
2022/07/22 11:24:51;;;;;;;3.37;2.40;;;14.80;99.90;;;;;;5038207;28;20196;-94
2022/07/22 11:27:23;;;;;;;2.30;2.10;;;14.80;99.90;;;;;;5020769;28;20212;-93
2022/07/22 11:29:57;;;;;;;2.40;2.20;;;14.90;99.90;;;;;;5019737;28;20677;-94
2022/07/22 11:32:31;;;;;;;2.47;2.20;;;14.90;99.90;;;;;;5019271;28;20244;-94
2022/07/22 11:35:04;;;;;;;3.83;1.70;;;15.00;99.90;;;;;;5019003;28;20304;-95
2022/07/22 11:37:37;;;;;;;4.03;2.30;;;15.10;99.90;;;;;;5020053;28;20245;-94
2022/07/22 11:40:12;;;;;;;3.83;2.03;;;15.10;99.90;;;;;;5020451;28;20225;-94
2022/07/22 11:42:43;;;;;;;2.63;2.13;;;15.20;99.90;;;;;;5020877;28;20275;-94
2022/07/22 11:45:15;;;;;;;3.43;1.70;;;15.20;99.90;;;;;;5020036;28;20285;-94
2022/07/22 11:47:51;;;;;;;3.97;2.40;;;15.20;99.90;;;;;;5020632;28;20217;-95
2022/07/22 11:50:36;;;;;;;7.67;1.93;;;15.20;99.90;;;;;;5018162;28;20217;-94
2022/07/22 11:53:07;;;;;;;2.10;1.90;;;15.20;99.90;;;;;;5020733;28;20256;-93
2022/07/22 11:55:39;;;;;;;1.90;1.80;;;15.20;99.90;;;;;;5018607;28;20209;-93
2022/07/22 11:58:11;;;;;;;1.90;1.70;;;15.10;99.90;;;;;;5018729;28;20236;-94
2022/07/22 12:00:42;;;;;;;2.00;1.90;;;15.10;99.90;;;;;;5017329;28;20218;-94
2022/07/22 12:03:15;;;;;;;2.67;1.70;;;15.00;99.90;;;;;;5017819;28;20219;-94
2022/07/22 12:05:49;;;;;;;2.17;1.97;;;15.10;99.90;;;;;;5018056;28;20205;-94
2022/07/22 12:08:20;;;;;;;2.47;1.67;;;15.10;99.90;;;;;;5019657;28;20213;-93
2022/07/22 12:10:52;;;;;;;1.80;1.70;;;15.10;99.90;;;;;;5018383;28;20201;-94
2022/07/22 12:13:23;;;;;;;2.93;2.00;;;15.10;99.90;;;;;;5017756;28;20312;-94
2022/07/22 12:15:54;;;;;;;2.43;1.60;;;15.00;99.90;;;;;;5019312;28;20367;-94
2022/07/22 12:18:27;;;;;;;2.50;1.60;;;15.00;99.90;;;;;;5016474;28;20223;-95
2022/07/22 12:21:09;;;;;;;1.70;1.50;;;15.00;99.90;;;;;;5017566;28;20260;-96
2022/07/22 12:23:52;;;;;;;1.87;1.43;;;14.90;99.90;;;;;;5021355;28;20210;-94
2022/07/22 12:26:40;;;;;;;2.13;1.90;;;15.00;99.90;;;;;;5020443;28;20206;-94
2022/07/22 12:29:19;;;;;;;3.07;1.87;;;15.00;99.90;;;;;;5019691;28;20217;-93
2022/07/22 12:31:53;;;;;;;3.47;1.83;;;15.00;99.90;;;;;;5018631;28;20205;-94
2022/07/22 12:34:36;;;;;;;2.10;1.90;;;15.00;99.90;;;;;;5019481;28;20241;-93
2022/07/22 12:37:18;;;;;;;1.90;1.63;;;15.10;99.90;;;;;;5020008;28;20217;-94
2022/07/22 12:39:59;;;;;;;3.13;1.60;;;15.10;99.90;;;;;;5018809;28;20243;-94
2022/07/22 12:42:32;;;;;;;2.17;1.80;;;15.20;99.90;;;;;;5020193;28;20217;-94
2022/07/22 12:45:07;;;;;;;2.80;1.70;;;15.20;99.90;;;;;;5019606;28;20256;-94
2022/07/22 12:47:46;;;;;;;3.33;1.90;;;15.10;99.90;;;;;;5018250;28;20264;-94
2022/07/22 12:50:37;;;;;;;1.70;1.53;;;15.10;99.90;;;;;;5019791;28;20209;-93
2022/07/22 12:53:13;;;;;;;3.73;1.50;;;15.10;99.90;;;;;;5021218;28;20244;-94
2022/07/22 12:55:51;;;;;;;3.10;1.83;;;15.10;99.90;;;;;;5019624;28;20232;-94
2022/07/22 12:58:28;;;;;;;2.80;1.70;;;15.10;99.90;;;;;;5018596;28;20209;-94
2022/07/22 13:01:02;;;;;;;2.00;1.50;;;15.20;99.90;;;;;;5018789;28;20293;-94
2022/07/22 13:03:34;;;;;;;2.37;1.90;;;15.20;99.90;;;;;;5019735;28;20337;-94
2022/07/22 13:06:10;;;;;;;3.47;2.00;;;15.10;99.90;;;;;;5020409;28;20205;-93
2022/07/22 13:08:45;;;;;;;2.20;1.70;;;15.10;99.90;;;;;;5019781;28;20216;-94
2022/07/22 13:11:18;;;;;;;3.53;1.50;;;15.10;99.90;;;;;;5020073;28;20198;-95
2022/07/22 13:13:50;;;;;;;2.53;1.70;;;15.10;99.90;;;;;;5021339;28;20287;-95
2022/07/22 13:16:22;;;;;;;1.70;1.37;;;15.10;99.90;;;;;;5022995;28;20279;-94
2022/07/22 13:18:54;;;;;;;2.50;1.77;;;15.00;99.90;;;;;;5020867;28;20209;-94
2022/07/22 13:21:25;;;;;;;2.40;1.57;;;15.10;99.90;;;;;;5020420;28;20205;-94
2022/07/22 13:23:59;;;;;;;1.40;1.30;;;15.10;99.90;;;;;;5022995;28;20205;-95
2022/07/22 13:26:31;;;;;;;1.53;1.43;;;15.10;99.90;;;;;;5021264;28;20209;-95
2022/07/22 13:29:03;;;;;;;1.57;1.40;;;15.10;99.90;;;;;;5022216;28;20209;-94
2022/07/22 13:31:35;;;;;;;1.37;1.27;;;15.20;99.90;;;;;;5021463;28;20260;-94
2022/07/22 13:34:27;;;;;;;1.27;0.93;;;15.30;99.90;;;;;;5023126;28;20265;-95
2022/07/22 13:36:59;;;;;;;0.90;0.90;;;15.30;99.90;;;;;;5022544;28;20355;-94
2022/07/22 13:39:34;;;;;;;1.27;1.17;;;15.40;99.90;;;;;;5022622;28;20558;-94
2022/07/22 13:42:06;;;;;;;1.00;1.00;;;15.30;99.90;;;;;;5019925;28;20229;-94
2022/07/22 13:44:37;;;;;;;0.97;0.97;;;15.20;99.90;;;;;;5024720;28;20235;-94
2022/07/22 13:47:09;;;;;;;1.07;0.93;;;15.20;99.90;;;;;;5022224;28;20289;-94
2022/07/22 13:49:40;;;;;;;2.90;1.07;;;15.20;99.90;;;;;;5021488;28;20214;-95
2022/07/22 13:52:12;;;;;;;0.93;0.70;;;15.20;99.90;;;;;;5019451;28;20232;-95
2022/07/22 13:54:47;;;;;;;0.80;0.80;;;15.30;99.90;;;;;;5019133;28;20297;-94
2022/07/22 13:57:22;;;;;;;2.27;0.80;;;15.30;99.90;;;;;;5019929;28;20216;-94
2022/07/22 13:59:53;;;;;;;1.97;0.80;;;15.30;99.90;;;;;;5020270;28;20231;-95
2022/07/22 14:02:25;;;;;;;0.83;0.83;;;15.40;99.90;;;;;;5019137;28;20244;-95
2022/07/22 14:04:57;;;;;;;0.60;0.60;;;15.50;99.90;;;;;;5019703;28;20682;-94
2022/07/22 14:07:29;;;;;;;0.60;0.60;;;15.60;99.90;;;;;;5020148;28;20271;-94
2022/07/22 14:10:03;;;;;;;0.73;0.70;;;15.50;99.90;;;;;;5019463;28;20206;-95
2022/07/22 14:12:34;;;;;;;1.20;0.70;;;15.50;99.90;;;;;;5019355;28;20216;-95
2022/07/22 14:15:07;;;;;;;0.70;0.70;;;15.50;99.90;;;;;;5019437;28;20300;-95
2022/07/22 14:17:39;;;;;;;1.20;0.80;;;15.40;99.90;;;;;;5019965;28;20264;-95
2022/07/22 14:20:12;;;;;;;0.77;0.77;;;15.50;99.90;;;;;;5019893;28;20217;-96
2022/07/22 14:22:44;;;;;;;0.77;0.70;;;15.40;99.90;;;;;;5019802;28;20225;-94
2022/07/22 14:25:18;;;;;;;3.30;0.70;;;15.40;99.90;;;;;;5019757;28;20222;-95
2022/07/22 14:27:49;;;;;;;1.40;0.87;;;15.40;99.90;;;;;;5020492;28;20209;-95
2022/07/22 14:30:41;;;;;;;1.17;0.70;;;15.40;99.90;;;;;;5018958;28;20229;-94
2022/07/22 14:33:16;;;;;;;0.60;0.60;;;15.50;99.90;;;;;;5019691;28;20293;-93
2022/07/22 14:35:49;;;;;;;0.60;0.60;;;15.60;99.90;;;;;;5019797;28;20228;-94
2022/07/22 14:38:21;;;;;;;0.50;0.43;;;15.70;99.90;;;;;;5019474;28;20659;-94
2022/07/22 14:40:56;;;;;;;0.70;0.50;;;15.70;99.90;;;;;;5018929;28;20217;-95
2022/07/22 14:46:14;;;;;;;0.53;0.53;;;15.80;99.90;;;;;;5018093;28;20264;-94
2022/07/22 14:48:48;;;;;;;0.50;0.50;;;15.80;99.90;;;;;;5003476;28;20214;-93
2022/07/22 14:54:12;;;;;;;0.60;0.50;;;15.90;99.90;;;;;;5014383;28;20285;-94
2022/07/22 14:56:58;;;;;;;0.60;0.60;;;15.90;99.90;;;;;;5007738;28;20204;-94
2022/07/22 14:59:30;;;;;;;0.80;0.70;;;15.90;99.90;;;;;;5008795;28;20210;-94
2022/07/22 15:02:01;;;;;;;2.30;0.50;;;16.00;99.90;;;;;;5017063;28;20236;-93
2022/07/22 15:04:33;;;;;;;1.00;0.60;;;16.20;99.90;;;;;;5017732;28;20206;-94
2022/07/22 15:07:05;;;;;;;0.83;0.70;;;16.30;99.90;;;;;;5017943;28;20194;-93
2022/07/22 15:09:40;;;;;;;0.60;0.43;;;16.40;99.90;;;;;;5009146;28;20257;-95
2022/07/22 15:12:21;;;;;;;1.07;0.40;;;16.40;99.90;;;;;;5012660;28;20206;-94
2022/07/22 15:18:10;;;;;;;0.50;0.50;;;16.20;99.90;;;;;;5013049;28;20217;-94
2022/07/22 15:29:57;;;;;;;2.90;0.40;;;16.40;99.90;;;;;;5032329;28;20265;-95
2022/07/22 15:32:33;;;;;;;1.27;0.57;;;16.30;99.90;;;;;;5026097;28;20271;-94
2022/07/22 15:35:05;;;;;;;1.90;0.63;;;16.30;99.90;;;;;;5018120;28;20237;-94
2022/07/22 15:37:37;;;;;;;2.60;0.30;;;16.40;99.90;;;;;;5018454;28;20220;-93
2022/07/22 15:40:11;;;;;;;0.63;0.37;;;16.40;99.90;;;;;;5023829;28;20221;-93
2022/07/22 15:42:43;;;;;;;2.87;0.90;;;16.20;99.90;;;;;;5029120;28;20214;-93
2022/07/22 15:51:43;;;;;;;1.43;0.57;;;16.40;99.90;;;;;;5010242;28;20209;-95
2022/07/22 15:54:14;;;;;;;0.80;0.40;;;16.40;99.90;;;;;;5004253;28;20213;-96
2022/07/22 15:56:45;;;;;;;0.60;0.40;;;16.10;99.90;;;;;;5000362;28;20210;-95
2022/07/22 15:59:31;;;;;;;0.70;0.67;;;16.20;99.90;;;;;;4998301;28;20211;-94
2022/07/22 16:02:05;;;;;;;3.03;0.70;;;16.40;99.90;;;;;;4999325;28;20241;-95
2022/07/22 16:04:37;;;;;;;4.10;0.63;;;16.60;99.90;;;;;;4997628;28;20241;-95
2022/07/22 16:07:09;;;;;;;0.80;0.43;;;16.70;99.90;;;;;;4997676;28;20215;-95
2022/07/22 16:09:42;;;;;;;1.67;0.60;;;16.80;99.90;;;;;;4998818;28;20210;-95
2022/07/22 16:12:13;;;;;;;2.40;0.43;;;16.70;99.90;;;;;;4997486;28;20236;-94
2022/07/22 16:14:45;;;;;;;0.90;0.60;;;16.60;99.90;;;;;;5000021;28;20781;-95
2022/07/22 16:17:19;;;;;;;0.33;0.33;;;16.60;99.90;;;;;;5017960;28;20225;-95
2022/07/22 16:19:51;;;;;;;0.47;0.43;;;16.60;99.90;;;;;;5020648;28;20263;-94
2022/07/22 16:22:22;;;;;;;1.77;0.60;;;16.40;99.90;;;;;;5019492;28;20852;-95
2022/07/22 16:24:54;;;;;;;0.80;0.60;;;16.40;99.90;;;;;;5023224;28;20681;-94
2022/07/22 16:27:25;;;;;;;4.23;0.57;;;16.60;99.90;;;;;;5022406;28;20236;-95
2022/07/22 16:29:59;;;;;;;0.53;0.50;;;16.60;99.90;;;;;;5020968;28;20213;-94
2022/07/22 16:32:33;;;;;;;1.00;0.60;;;16.80;99.90;;;;;;5016328;28;20202;-95
2022/07/22 16:35:04;;;;;;;0.97;0.60;;;16.70;99.90;;;;;;5021266;28;20264;-94
2022/07/22 16:37:35;;;;;;;1.20;0.50;;;16.70;99.90;;;;;;5021859;28;20233;-95
2022/07/22 16:40:08;;;;;;;0.33;0.33;;;16.60;99.90;;;;;;5015641;28;20298;-94
2022/07/22 16:42:43;;;;;;;1.33;0.60;;;16.80;99.90;;;;;;5021373;28;20205;-95
2022/07/22 16:45:14;;;;;;;0.87;0.40;;;16.70;99.90;;;;;;5022097;28;20271;-95
2022/07/22 16:47:47;;;;;;;0.40;0.40;;;16.80;99.90;;;;;;5009207;28;20214;-94